sensor_id;sensor_type;location;lat;lon;timestamp;pressure;altitude;pressure_sealevel;temperature;humidity
13015;BME280;6573;57.696;11.950;2022-09-03T00:00:46;102320.78;;;14.94;100.00
13015;BME280;6573;57.696;11.950;2022-09-03T00:03:18;102316.38;;;14.93;100.00
13015;BME280;6573;57.696;11.950;2022-09-03T00:05:55;102318.13;;;14.88;100.00
13015;BME280;6573;57.696;11.950;2022-09-03T00:08:33;102310.19;;;15.06;100.00
13015;BME280;6573;57.696;11.950;2022-09-03T00:11:13;102319.94;;;15.07;100.00
13015;BME280;6573;57.696;11.950;2022-09-03T00:13:46;102315.50;;;15.00;100.00
13015;BME280;6573;57.696;11.950;2022-09-03T00:16:19;102323.44;;;14.97;100.00
13015;BME280;6573;57.696;11.950;2022-09-03T00:18:53;102320.75;;;14.89;100.00
13015;BME280;6573;57.696;11.950;2022-09-03T00:21:33;102325.16;;;14.83;100.00
13015;BME280;6573;57.696;11.950;2022-09-03T00:24:07;102323.38;;;14.76;100.00
13015;BME280;6573;57.696;11.950;2022-09-03T00:26:44;102323.31;;;14.67;100.00
13015;BME280;6573;57.696;11.950;2022-09-03T00:29:16;102317.19;;;14.77;100.00
13015;BME280;6573;57.696;11.950;2022-09-03T00:31:48;102320.72;;;14.73;100.00
13015;BME280;6573;57.696;11.950;2022-09-03T00:34:23;102326.00;;;14.68;100.00
13015;BME280;6573;57.696;11.950;2022-09-03T00:36:53;102323.31;;;14.67;100.00
13015;BME280;6573;57.696;11.950;2022-09-03T00:39:24;102325.97;;;14.65;100.00
13015;BME280;6573;57.696;11.950;2022-09-03T00:42:04;102326.84;;;14.63;100.00
13015;BME280;6573;57.696;11.950;2022-09-03T00:44:47;102321.53;;;14.63;100.00
13015;BME280;6573;57.696;11.950;2022-09-03T00:47:26;102332.06;;;14.54;100.00
13015;BME280;6573;57.696;11.950;2022-09-03T00:50:03;102328.56;;;14.55;100.00
13015;BME280;6573;57.696;11.950;2022-09-03T00:52:42;102333.88;;;14.58;100.00
13015;BME280;6573;57.696;11.950;2022-09-03T00:55:24;102328.59;;;14.61;100.00
13015;BME280;6573;57.696;11.950;2022-09-03T00:58:08;102333.91;;;14.61;100.00
13015;BME280;6573;57.696;11.950;2022-09-03T01:00:41;102295.81;;;14.33;100.00
13015;BME280;6573;57.696;11.950;2022-09-03T01:03:14;102331.22;;;14.59;100.00
13015;BME280;6573;57.696;11.950;2022-09-03T01:06:00;102312.66;;;14.49;100.00
13015;BME280;6573;57.696;11.950;2022-09-03T01:08:47;102330.31;;;14.54;100.00
13015;BME280;6573;57.696;11.950;2022-09-03T01:11:30;102316.16;;;14.49;100.00
13015;BME280;6573;57.696;11.950;2022-09-03T01:14:09;102319.72;;;14.50;100.00
13015;BME280;6573;57.696;11.950;2022-09-03T01:16:47;102326.72;;;14.39;100.00
13015;BME280;6573;57.696;11.950;2022-09-03T01:19:53;102324.97;;;14.41;100.00
13015;BME280;6573;57.696;11.950;2022-09-03T01:22:47;102324.97;;;14.47;100.00
13015;BME280;6573;57.696;11.950;2022-09-03T01:25:37;102327.59;;;14.39;100.00
13015;BME280;6573;57.696;11.950;2022-09-03T01:28:21;102317.91;;;14.43;100.00
13015;BME280;6573;57.696;11.950;2022-09-03T01:30:56;102304.56;;;14.26;100.00
13015;BME280;6573;57.696;11.950;2022-09-03T01:33:30;102311.72;;;14.36;100.00
13015;BME280;6573;57.696;11.950;2022-09-03T01:36:09;102316.09;;;14.36;100.00
13015;BME280;6573;57.696;11.950;2022-09-03T01:38:46;102308.97;;;14.28;100.00
13015;BME280;6573;57.696;11.950;2022-09-03T01:41:25;102317.88;;;14.40;100.00
13015;BME280;6573;57.696;11.950;2022-09-03T01:44:22;102317.03;;;14.45;100.00
13015;BME280;6573;57.696;11.950;2022-09-03T01:46:59;102309.06;;;14.38;100.00
13015;BME280;6573;57.696;11.950;2022-09-03T01:49:36;102317.88;;;14.34;100.00
13015;BME280;6573;57.696;11.950;2022-09-03T01:52:24;102317.84;;;14.31;100.00
13015;BME280;6573;57.696;11.950;2022-09-03T01:55:04;102314.31;;;14.32;100.00
13015;BME280;6573;57.696;11.950;2022-09-03T01:57:46;102314.25;;;14.25;100.00
13015;BME280;6573;57.696;11.950;2022-09-03T02:00:17;102316.94;;;14.32;100.00
13015;BME280;6573;57.696;11.950;2022-09-03T02:02:48;102316.03;;;14.29;100.00
13015;BME280;6573;57.696;11.950;2022-09-03T02:05:19;102317.72;;;14.15;100.00
13015;BME280;6573;57.696;11.950;2022-09-03T02:07:57;102306.19;;;14.07;100.00
13015;BME280;6573;57.696;11.950;2022-09-03T02:10:29;102312.44;;;14.18;100.00
13015;BME280;6573;57.696;11.950;2022-09-03T02:13:01;102309.75;;;14.11;100.00
13015;BME280;6573;57.696;11.950;2022-09-03T02:15:34;102307.06;;;14.03;100.00
13015;BME280;6573;57.696;11.950;2022-09-03T02:18:07;102308.81;;;14.01;100.00
13015;BME280;6573;57.696;11.950;2022-09-03T02:20:38;102307.06;;;14.03;100.00
13015;BME280;6573;57.696;11.950;2022-09-03T02:23:07;102307.06;;;14.09;100.00
13015;BME280;6573;57.696;11.950;2022-09-03T02:25:37;102296.50;;;14.09;100.00
13015;BME280;6573;57.696;11.950;2022-09-03T02:28:08;102294.69;;;14.02;100.00
13015;BME280;6573;57.696;11.950;2022-09-03T02:30:45;102300.03;;;14.08;100.00
13015;BME280;6573;57.696;11.950;2022-09-03T02:33:15;102300.00;;;14.05;100.00
13015;BME280;6573;57.696;11.950;2022-09-03T02:35:43;102298.13;;;13.92;100.00
13015;BME280;6573;57.696;11.950;2022-09-03T02:38:14;102292.84;;;13.92;100.00
13015;BME280;6573;57.696;11.950;2022-09-03T02:40:43;102298.19;;;13.98;100.00
13015;BME280;6573;57.696;11.950;2022-09-03T02:43:14;102289.34;;;13.93;100.00
13015;BME280;6573;57.696;11.950;2022-09-03T02:45:49;102292.00;;;13.93;100.00
13015;BME280;6573;57.696;11.950;2022-09-03T02:48:23;102287.53;;;13.86;100.00
13015;BME280;6573;57.696;11.950;2022-09-03T02:50:51;102290.16;;;13.89;100.00
13015;BME280;6573;57.696;11.950;2022-09-03T02:53:19;102292.84;;;13.92;100.00
13015;BME280;6573;57.696;11.950;2022-09-03T02:55:47;102287.59;;;13.95;100.00
13015;BME280;6573;57.696;11.950;2022-09-03T02:58:16;102291.09;;;13.94;100.00
13015;BME280;6573;57.696;11.950;2022-09-03T03:00:44;102294.53;;;13.81;100.00
13015;BME280;6573;57.696;11.950;2022-09-03T03:03:16;102292.75;;;13.80;100.00
13015;BME280;6573;57.696;11.950;2022-09-03T03:05:48;102287.50;;;13.83;100.00
13015;BME280;6573;57.696;11.950;2022-09-03T03:08:18;102292.78;;;13.83;100.00
13015;BME280;6573;57.696;11.950;2022-09-03T03:10:52;102287.44;;;13.77;100.00
13015;BME280;6573;57.696;11.950;2022-09-03T03:13:22;102278.59;;;13.72;100.00
13015;BME280;6573;57.696;11.950;2022-09-03T03:15:50;102283.94;;;13.78;100.00
13015;BME280;6573;57.696;11.950;2022-09-03T03:18:20;102278.63;;;13.75;100.00
13015;BME280;6573;57.696;11.950;2022-09-03T03:20:48;102290.13;;;13.80;100.00
13015;BME280;6573;57.696;11.950;2022-09-03T03:23:17;102290.97;;;13.76;100.00
13015;BME280;6573;57.696;11.950;2022-09-03T03:25:45;102283.91;;;13.75;100.00
13015;BME280;6573;57.696;11.950;2022-09-03T03:28:13;102285.69;;;13.76;100.00
13015;BME280;6573;57.696;11.950;2022-09-03T03:30:42;102282.16;;;13.77;100.00
13015;BME280;6573;57.696;11.950;2022-09-03T03:33:13;102284.81;;;13.74;100.00
13015;BME280;6573;57.696;11.950;2022-09-03T03:35:43;102284.75;;;13.73;100.00
13015;BME280;6573;57.696;11.950;2022-09-03T03:38:11;102289.19;;;13.75;100.00
13015;BME280;6573;57.696;11.950;2022-09-03T03:40:39;102290.88;;;13.64;100.00
13015;BME280;6573;57.696;11.950;2022-09-03T03:43:07;102291.78;;;13.66;100.00
13015;BME280;6573;57.696;11.950;2022-09-03T03:45:36;102289.09;;;13.63;100.00
13015;BME280;6573;57.696;11.950;2022-09-03T03:48:07;102280.34;;;13.70;100.00
13015;BME280;6573;57.696;11.950;2022-09-03T03:50:36;102281.19;;;13.66;100.00
13015;BME280;6573;57.696;11.950;2022-09-03T03:53:05;102290.88;;;13.64;100.00
13015;BME280;6573;57.696;11.950;2022-09-03T03:55:34;102287.34;;;13.65;100.00
13015;BME280;6573;57.696;11.950;2022-09-03T03:58:02;102285.50;;;13.55;100.00
13015;BME280;6573;57.696;11.950;2022-09-03T04:00:31;102269.53;;;13.43;100.00
13015;BME280;6573;57.696;11.950;2022-09-03T04:03:03;102289.91;;;13.53;100.00
13015;BME280;6573;57.696;11.950;2022-09-03T04:05:32;102290.72;;;13.46;100.00
13015;BME280;6573;57.696;11.950;2022-09-03T04:08:00;102293.41;;;13.49;100.00
13015;BME280;6573;57.696;11.950;2022-09-03T04:10:31;102285.53;;;13.58;100.00
13015;BME280;6573;57.696;11.950;2022-09-03T04:12:59;102284.59;;;13.51;100.00
13015;BME280;6573;57.696;11.950;2022-09-03T04:15:27;102288.09;;;13.46;100.00
13015;BME280;6573;57.696;11.950;2022-09-03T04:17:56;102288.16;;;13.55;100.00
13015;BME280;6573;57.696;11.950;2022-09-03T04:20:24;102292.63;;;13.63;100.00
13015;BME280;6573;57.696;11.950;2022-09-03T04:22:52;102285.56;;;13.61;100.00
13015;BME280;6573;57.696;11.950;2022-09-03T04:25:21;102285.56;;;13.61;100.00
13015;BME280;6573;57.696;11.950;2022-09-03T04:27:51;102294.25;;;13.48;100.00
13015;BME280;6573;57.696;11.950;2022-09-03T04:30:20;102292.44;;;13.41;100.00
13015;BME280;6573;57.696;11.950;2022-09-03T04:32:49;102290.66;;;13.37;100.00
13015;BME280;6573;57.696;11.950;2022-09-03T04:35:20;102291.50;;;13.36;100.00
13015;BME280;6573;57.696;11.950;2022-09-03T04:37:49;102300.25;;;13.30;100.00
13015;BME280;6573;57.696;11.950;2022-09-03T04:40:20;102289.72;;;13.33;100.00
13015;BME280;6573;57.696;11.950;2022-09-03T04:42:49;102297.63;;;13.29;100.00
13015;BME280;6573;57.696;11.950;2022-09-03T04:45:19;102289.66;;;13.27;100.00
13015;BME280;6573;57.696;11.950;2022-09-03T04:47:55;102294.03;;;13.24;100.00
13015;BME280;6573;57.696;11.950;2022-09-03T04:50:24;102299.47;;;13.39;100.00
13015;BME280;6573;57.696;11.950;2022-09-03T04:52:53;102288.94;;;13.42;100.00
13015;BME280;6573;57.696;11.950;2022-09-03T04:55:21;102297.72;;;13.41;100.00
13015;BME280;6573;57.696;11.950;2022-09-03T04:57:50;102290.78;;;13.55;100.00
13015;BME280;6573;57.696;11.950;2022-09-03T05:00:20;102296.00;;;13.46;100.00
13015;BME280;6573;57.696;11.950;2022-09-03T05:02:48;102283.66;;;13.42;100.00
13015;BME280;6573;57.696;11.950;2022-09-03T05:05:18;102300.38;;;13.42;100.00
13015;BME280;6573;57.696;11.950;2022-09-03T05:07:46;102294.28;;;13.51;100.00
13015;BME280;6573;57.696;11.950;2022-09-03T05:10:14;102289.94;;;13.56;100.00
13015;BME280;6573;57.696;11.950;2022-09-03T05:12:46;102294.22;;;13.45;100.00
13015;BME280;6573;57.696;11.950;2022-09-03T05:15:15;102301.25;;;13.43;100.00
13015;BME280;6573;57.696;11.950;2022-09-03T05:17:45;102301.22;;;13.40;100.00
13015;BME280;6573;57.696;11.950;2022-09-03T05:20:13;102310.03;;;13.39;100.00
13015;BME280;6573;57.696;11.950;2022-09-03T05:22:41;102304.81;;;13.45;100.00
13015;BME280;6573;57.696;11.950;2022-09-03T05:25:09;102297.78;;;13.50;100.00
13015;BME280;6573;57.696;11.950;2022-09-03T05:27:38;102280.13;;;13.43;100.00
13015;BME280;6573;57.696;11.950;2022-09-03T05:30:10;102304.88;;;13.51;100.00
13015;BME280;6573;57.696;11.950;2022-09-03T05:32:38;102294.31;;;13.54;100.00
13015;BME280;6573;57.696;11.950;2022-09-03T05:35:08;102298.75;;;13.56;100.00
13015;BME280;6573;57.696;11.950;2022-09-03T05:37:37;102304.03;;;13.56;100.00
13015;BME280;6573;57.696;11.950;2022-09-03T05:40:07;102305.84;;;13.59;100.00
13015;BME280;6573;57.696;11.950;2022-09-03T05:42:37;102298.75;;;13.59;100.00
13015;BME280;6573;57.696;11.950;2022-09-03T05:45:07;102312.00;;;13.61;100.00
13015;BME280;6573;57.696;11.950;2022-09-03T05:47:37;102308.53;;;13.68;100.00
13015;BME280;6573;57.696;11.950;2022-09-03T05:50:10;102309.44;;;13.69;100.00
13015;BME280;6573;57.696;11.950;2022-09-03T05:52:38;102309.47;;;13.75;100.00
13015;BME280;6573;57.696;11.950;2022-09-03T05:55:08;102313.97;;;13.83;100.00
13015;BME280;6573;57.696;11.950;2022-09-03T05:57:39;102310.44;;;13.84;100.00
13015;BME280;6573;57.696;11.950;2022-09-03T06:00:09;102320.09;;;13.82;100.00
13015;BME280;6573;57.696;11.950;2022-09-03T06:02:38;102319.25;;;13.83;100.00
13015;BME280;6573;57.696;11.950;2022-09-03T06:05:07;102288.28;;;13.70;100.00
13015;BME280;6573;57.696;11.950;2022-09-03T06:07:36;102321.06;;;13.90;100.00
13015;BME280;6573;57.696;11.950;2022-09-03T06:10:06;102318.41;;;13.90;100.00
13015;BME280;6573;57.696;11.950;2022-09-03T06:12:35;102311.41;;;13.95;100.00
13015;BME280;6573;57.696;11.950;2022-09-03T06:15:04;102310.50;;;13.95;100.00
13015;BME280;6573;57.696;11.950;2022-09-03T06:17:33;102317.63;;;14.03;100.00
13015;BME280;6573;57.696;11.950;2022-09-03T06:20:02;102308.00;;;14.11;100.00
13015;BME280;6573;57.696;11.950;2022-09-03T06:22:30;102311.56;;;14.19;100.00
13015;BME280;6573;57.696;11.950;2022-09-03T06:25:00;102314.25;;;14.25;100.00
13015;BME280;6573;57.696;11.950;2022-09-03T06:27:28;102319.59;;;14.32;100.00
13015;BME280;6573;57.696;11.950;2022-09-03T06:29:57;102318.66;;;14.26;100.00
13015;BME280;6573;57.696;11.950;2022-09-03T06:32:25;102314.31;;;14.35;100.00
13015;BME280;6573;57.696;11.950;2022-09-03T06:34:55;102314.38;;;14.41;100.00
13015;BME280;6573;57.696;11.950;2022-09-03T06:37:23;102322.38;;;14.48;100.00
13015;BME280;6573;57.696;11.950;2022-09-03T06:39:51;102325.00;;;14.50;100.00
13015;BME280;6573;57.696;11.950;2022-09-03T06:42:21;102287.84;;;14.35;100.00
13015;BME280;6573;57.696;11.950;2022-09-03T06:44:50;102317.97;;;14.55;100.00
13015;BME280;6573;57.696;11.950;2022-09-03T06:47:18;102323.31;;;14.61;100.00
13015;BME280;6573;57.696;11.950;2022-09-03T06:49:47;102295.00;;;14.54;100.00
13015;BME280;6573;57.696;11.950;2022-09-03T06:52:15;102320.72;;;14.76;100.00
13015;BME280;6573;57.696;11.950;2022-09-03T06:54:43;102325.16;;;14.80;100.00
13015;BME280;6573;57.696;11.950;2022-09-03T06:57:12;102319.84;;;14.80;100.00
13015;BME280;6573;57.696;11.950;2022-09-03T06:59:41;102326.91;;;14.84;100.00
13015;BME280;6573;57.696;11.950;2022-09-03T07:02:10;102328.72;;;14.88;100.00
13015;BME280;6573;57.696;11.950;2022-09-03T07:04:38;102328.72;;;14.94;100.00
13015;BME280;6573;57.696;11.950;2022-09-03T07:07:09;102309.31;;;14.98;100.00
13015;BME280;6573;57.696;11.950;2022-09-03T07:09:39;102321.72;;;15.08;100.00
13015;BME280;6573;57.696;11.950;2022-09-03T07:12:13;102316.41;;;15.05;100.00
13015;BME280;6573;57.696;11.950;2022-09-03T07:14:47;102326.13;;;15.12;100.00
13015;BME280;6573;57.696;11.950;2022-09-03T07:17:16;102327.91;;;15.19;100.00
13015;BME280;6573;57.696;11.950;2022-09-03T07:19:45;102329.72;;;15.29;100.00
13015;BME280;6573;57.696;11.950;2022-09-03T07:22:13;102328.81;;;15.33;100.00
13015;BME280;6573;57.696;11.950;2022-09-03T07:24:41;102326.22;;;15.42;100.00
13015;BME280;6573;57.696;11.950;2022-09-03T07:27:12;102320.94;;;15.48;100.00
13015;BME280;6573;57.696;11.950;2022-09-03T07:29:41;102324.47;;;15.52;100.00
13015;BME280;6573;57.696;11.950;2022-09-03T07:32:10;102318.31;;;15.58;100.00
13015;BME280;6573;57.696;11.950;2022-09-03T07:34:38;102322.72;;;15.66;100.00
13015;BME280;6573;57.696;11.950;2022-09-03T07:37:07;102327.16;;;15.75;100.00
13015;BME280;6573;57.696;11.950;2022-09-03T07:39:35;102327.13;;;15.81;100.00
13015;BME280;6573;57.696;11.950;2022-09-03T07:42:04;102322.72;;;15.87;100.00
13015;BME280;6573;57.696;11.950;2022-09-03T07:44:34;102318.28;;;15.97;100.00
13015;BME280;6573;57.696;11.950;2022-09-03T07:47:02;102318.25;;;16.03;100.00
13015;BME280;6573;57.696;11.950;2022-09-03T07:49:33;102320.00;;;16.13;100.00
13015;BME280;6573;57.696;11.950;2022-09-03T07:52:02;102316.47;;;16.23;100.00
13015;BME280;6573;57.696;11.950;2022-09-03T07:54:30;102298.78;;;16.16;100.00
13015;BME280;6573;57.696;11.950;2022-09-03T07:56:58;102320.00;;;16.31;100.00
13015;BME280;6573;57.696;11.950;2022-09-03T07:59:27;102319.09;;;16.40;100.00
13015;BME280;6573;57.696;11.950;2022-09-03T08:01:57;102319.94;;;16.46;100.00
13015;BME280;6573;57.696;11.950;2022-09-03T08:04:25;102311.09;;;16.53;100.00
13015;BME280;6573;57.696;11.950;2022-09-03T08:06:55;102316.41;;;16.59;100.00
13015;BME280;6573;57.696;11.950;2022-09-03T08:09:25;102318.16;;;16.57;100.00
13015;BME280;6573;57.696;11.950;2022-09-03T08:11:53;102324.34;;;16.67;100.00
13015;BME280;6573;57.696;11.950;2022-09-03T08:14:22;102321.63;;;16.77;100.00
13015;BME280;6573;57.696;11.950;2022-09-03T08:16:50;102326.09;;;16.77;100.00
13015;BME280;6573;57.696;11.950;2022-09-03T08:19:18;102295.97;;;16.67;100.00
13015;BME280;6573;57.696;11.950;2022-09-03T08:21:46;102316.25;;;16.93;100.00
13015;BME280;6573;57.696;11.950;2022-09-03T08:24:17;102326.88;;;16.93;100.00
13015;BME280;6573;57.696;11.950;2022-09-03T08:26:47;102327.72;;;17.04;100.00
13015;BME280;6573;57.696;11.950;2022-09-03T08:29:18;102314.16;;;17.46;100.00
13015;BME280;6573;57.696;11.950;2022-09-03T08:31:47;102299.19;;;18.32;100.00
13015;BME280;6573;57.696;11.950;2022-09-03T08:34:15;102305.38;;;19.05;100.00
13015;BME280;6573;57.696;11.950;2022-09-03T08:36:45;102306.19;;;19.70;100.00
13015;BME280;6573;57.696;11.950;2022-09-03T08:39:14;102314.47;;;20.05;100.00
13015;BME280;6573;57.696;11.950;2022-09-03T08:41:56;102318.97;;;20.50;100.00
13015;BME280;6573;57.696;11.950;2022-09-03T08:44:30;102320.38;;;20.70;100.00
13015;BME280;6573;57.696;11.950;2022-09-03T08:47:06;102315.81;;;20.30;100.00
13015;BME280;6573;57.696;11.950;2022-09-03T08:49:43;102319.34;;;20.32;100.00
13015;BME280;6573;57.696;11.950;2022-09-03T08:52:21;102314.13;;;20.26;100.00
13015;BME280;6573;57.696;11.950;2022-09-03T08:54:57;102313.03;;;20.36;100.00
13015;BME280;6573;57.696;11.950;2022-09-03T08:57:31;102317.50;;;20.34;100.00
13015;BME280;6573;57.696;11.950;2022-09-03T09:00:04;102301.59;;;20.28;100.00
13015;BME280;6573;57.696;11.950;2022-09-03T09:02:41;102314.00;;;20.32;100.00
13015;BME280;6573;57.696;11.950;2022-09-03T09:05:16;102309.63;;;20.28;100.00
13015;BME280;6573;57.696;11.950;2022-09-03T09:07:50;102309.06;;;20.08;100.00
13015;BME280;6573;57.696;11.950;2022-09-03T09:10:24;102307.38;;;20.04;100.00
13015;BME280;6573;57.696;11.950;2022-09-03T09:13:04;102310.84;;;20.09;100.00
13015;BME280;6573;57.696;11.950;2022-09-03T09:15:42;102309.06;;;20.08;100.00
13015;BME280;6573;57.696;11.950;2022-09-03T09:18:21;102289.47;;;20.09;100.00
13015;BME280;6573;57.696;11.950;2022-09-03T09:20:53;102298.44;;;20.05;100.00
13015;BME280;6573;57.696;11.950;2022-09-03T09:23:29;102304.44;;;20.19;100.00
13015;BME280;6573;57.696;11.950;2022-09-03T09:26:00;102301.66;;;20.25;100.00
13015;BME280;6573;57.696;11.950;2022-09-03T09:28:34;102299.03;;;20.24;100.00
13015;BME280;6573;57.696;11.950;2022-09-03T09:31:05;102300.47;;;20.40;100.00
13015;BME280;6573;57.696;11.950;2022-09-03T09:33:35;102299.44;;;20.48;100.00
13015;BME280;6573;57.696;11.950;2022-09-03T09:36:06;102292.19;;;20.53;100.00
13015;BME280;6573;57.696;11.950;2022-09-03T09:38:37;102282.69;;;20.37;100.00
13015;BME280;6573;57.696;11.950;2022-09-03T09:41:10;102295.22;;;20.35;100.00
13015;BME280;6573;57.696;11.950;2022-09-03T09:43:41;102295.38;;;20.29;100.00
13015;BME280;6573;57.696;11.950;2022-09-03T09:46:12;102296.41;;;20.19;100.00
13015;BME280;6573;57.696;11.950;2022-09-03T09:48:48;102289.28;;;20.18;100.00
13015;BME280;6573;57.696;11.950;2022-09-03T09:51:19;102296.06;;;20.37;100.00
13015;BME280;6573;57.696;11.950;2022-09-03T09:53:59;102292.25;;;20.50;100.00
13015;BME280;6573;57.696;11.950;2022-09-03T09:56:28;102302.63;;;20.65;100.00
13015;BME280;6573;57.696;11.950;2022-09-03T09:59:04;102285.22;;;20.46;100.00
13015;BME280;6573;57.696;11.950;2022-09-03T10:01:34;102292.31;;;20.47;100.00
13015;BME280;6573;57.696;11.950;2022-09-03T10:04:09;102286.59;;;20.65;100.00
13015;BME280;6573;57.696;11.950;2022-09-03T10:06:38;102290.25;;;20.61;100.00
13015;BME280;6573;57.696;11.950;2022-09-03T10:09:25;102290.34;;;20.55;100.00
13015;BME280;6573;57.696;11.950;2022-09-03T10:12:07;102291.72;;;20.75;100.00
13015;BME280;6573;57.696;11.950;2022-09-03T10:14:46;102289.50;;;20.95;100.00
13015;BME280;6573;57.696;11.950;2022-09-03T10:17:21;102288.22;;;20.73;100.00
13015;BME280;6573;57.696;11.950;2022-09-03T10:20:06;102285.13;;;20.49;100.00
13015;BME280;6573;57.696;11.950;2022-09-03T10:23:00;102281.28;;;20.62;100.00
13015;BME280;6573;57.696;11.950;2022-09-03T10:25:36;102273.72;;;20.83;100.00
13015;BME280;6573;57.696;11.950;2022-09-03T10:28:08;102294.91;;;20.92;100.00
13015;BME280;6573;57.696;11.950;2022-09-03T10:30:50;102282.84;;;20.73;100.00
13015;BME280;6573;57.696;11.950;2022-09-03T10:33:26;102282.34;;;20.55;100.00
13015;BME280;6573;57.696;11.950;2022-09-03T10:36:08;102277.78;;;20.60;100.00
13015;BME280;6573;57.696;11.950;2022-09-03T10:38:40;102285.06;;;20.52;100.00
13015;BME280;6573;57.696;11.950;2022-09-03T10:41:21;102287.09;;;20.41;100.00
13015;BME280;6573;57.696;11.950;2022-09-03T10:44:08;102285.72;;;20.19;100.00
13015;BME280;6573;57.696;11.950;2022-09-03T10:46:52;102282.59;;;19.96;100.00
13015;BME280;6573;57.696;11.950;2022-09-03T10:49:33;102284.41;;;19.94;100.00
13015;BME280;6573;57.696;11.950;2022-09-03T10:52:12;102290.13;;;20.20;100.00
13015;BME280;6573;57.696;11.950;2022-09-03T10:54:52;102279.13;;;20.37;100.00
13015;BME280;6573;57.696;11.950;2022-09-03T10:57:33;102269.53;;;20.28;100.00
13015;BME280;6573;57.696;11.950;2022-09-03T11:00:08;102283.63;;;20.36;100.00
13015;BME280;6573;57.696;11.950;2022-09-03T11:05:55;102282.06;;;20.26;100.00
13015;BME280;6573;57.696;11.950;2022-09-03T11:08:28;102274.75;;;20.34;100.00
13015;BME280;6573;57.696;11.950;2022-09-03T11:11:08;102276.66;;;20.29;100.00
13015;BME280;6573;57.696;11.950;2022-09-03T11:13:39;102267.84;;;20.24;100.00
13015;BME280;6573;57.696;11.950;2022-09-03T11:16:16;102264.41;;;20.16;100.00
13015;BME280;6573;57.696;11.950;2022-09-03T11:18:48;102267.84;;;20.24;100.00
13015;BME280;6573;57.696;11.950;2022-09-03T11:21:20;102267.44;;;20.42;100.00
13015;BME280;6573;57.696;11.950;2022-09-03T11:23:52;102265.44;;;20.53;100.00
13015;BME280;6573;57.696;11.950;2022-09-03T11:26:26;102270.84;;;20.50;100.00
13015;BME280;6573;57.696;11.950;2022-09-03T11:28:57;102257.50;;;20.50;100.00
13015;BME280;6573;57.696;11.950;2022-09-03T11:31:38;102255.59;;;20.55;100.00
13015;BME280;6573;57.696;11.950;2022-09-03T11:34:15;102256.59;;;20.51;100.00
13015;BME280;6573;57.696;11.950;2022-09-03T11:37:15;102262.16;;;20.39;100.00
13015;BME280;6573;57.696;11.950;2022-09-03T11:39:51;102253.44;;;20.31;100.00
13015;BME280;6573;57.696;11.950;2022-09-03T11:42:28;102253.53;;;20.27;100.00
13015;BME280;6573;57.696;11.950;2022-09-03T11:45:21;102255.81;;;20.45;100.00
13015;BME280;6573;57.696;11.950;2022-09-03T11:47:50;102242.50;;;20.43;100.00
13015;BME280;6573;57.696;11.950;2022-09-03T11:50:22;102250.28;;;20.54;100.00
13015;BME280;6573;57.696;11.950;2022-09-03T11:53:05;102249.09;;;20.69;100.00
13015;BME280;6573;57.696;11.950;2022-09-03T11:55:50;102246.31;;;20.73;100.00
13015;BME280;6573;57.696;11.950;2022-09-03T11:58:24;102238.72;;;20.92;100.00
13015;BME280;6573;57.696;11.950;2022-09-03T12:00:54;102236.81;;;20.98;100.00
13015;BME280;6573;57.696;11.950;2022-09-03T12:03:25;102249.19;;;20.62;100.00
13015;BME280;6573;57.696;11.950;2022-09-03T12:06:22;102231.59;;;20.52;100.00
13015;BME280;6573;57.696;11.950;2022-09-03T12:09:31;102252.25;;;20.86;100.00
13015;BME280;6573;57.696;11.950;2022-09-03T12:12:11;102242.63;;;21.17;100.00
13015;BME280;6573;57.696;11.950;2022-09-03T12:14:58;102244.41;;;21.18;100.00
13015;BME280;6573;57.696;11.950;2022-09-03T12:17:34;102234.22;;;21.32;100.00
13015;BME280;6573;57.696;11.950;2022-09-03T12:20:11;102229.56;;;21.40;100.00
13015;BME280;6573;57.696;11.950;2022-09-03T12:22:41;102231.25;;;21.44;100.00
13015;BME280;6573;57.696;11.950;2022-09-03T12:25:13;102220.84;;;21.32;100.00
13015;BME280;6573;57.696;11.950;2022-09-03T12:27:44;102224.59;;;21.25;100.00
13015;BME280;6573;57.696;11.950;2022-09-03T12:30:16;102222.06;;;21.19;100.00
13015;BME280;6573;57.696;11.950;2022-09-03T12:32:46;102209.84;;;21.07;100.00
13015;BME280;6573;57.696;11.950;2022-09-03T12:35:18;102217.41;;;21.27;100.00
13015;BME280;6573;57.696;11.950;2022-09-03T12:38:06;102202.03;;;20.97;100.00
13015;BME280;6573;57.696;11.950;2022-09-03T12:40:42;102201.03;;;21.02;100.00
13015;BME280;6573;57.696;11.950;2022-09-03T12:43:31;102214.03;;;21.19;100.00
13015;BME280;6573;57.696;11.950;2022-09-03T12:46:12;102215.88;;;21.17;100.00
13015;BME280;6573;57.696;11.950;2022-09-03T12:48:51;102214.75;;;20.89;100.00
13015;BME280;6573;57.696;11.950;2022-09-03T12:51:41;102212.16;;;20.84;100.00
13015;BME280;6573;57.696;11.950;2022-09-03T12:54:16;102208.03;;;20.71;100.00
13015;BME280;6573;57.696;11.950;2022-09-03T12:56:49;102220.34;;;20.77;100.00
13015;BME280;6573;57.696;11.950;2022-09-03T12:59:22;102213.38;;;20.70;100.00
13015;BME280;6573;57.696;11.950;2022-09-03T13:01:55;102222.25;;;20.72;100.00
13015;BME280;6573;57.696;11.950;2022-09-03T13:04:28;102203.94;;;20.92;100.00
13015;BME280;6573;57.696;11.950;2022-09-03T13:07:01;102202.34;;;20.85;100.00
13015;BME280;6573;57.696;11.950;2022-09-03T13:09:35;102204.31;;;20.77;100.00
13015;BME280;6573;57.696;11.950;2022-09-03T13:12:06;102199.94;;;20.73;100.00
13015;BME280;6573;57.696;11.950;2022-09-03T13:14:47;102188.34;;;20.74;100.00